Time;durP1;ratioP1;P1;durP2;ratioP2;P2;SDS_P1;SDS_P2;PMS_P1;PMS_P2;Temp;Humidity;BMP_temperature;BMP_pressure;BME280_temperature;BME280_humidity;BME280_pressure;Samples;Min_cycle;Max_cycle;Signal;HPM_P1;HPM_P2
2023/07/07 00:02:09;;;;;;;7.15;2.08;;;15.30;96.00;;;;;;5025968;28;20121;-94
2023/07/07 00:04:34;;;;;;;6.28;2.10;;;15.30;96.10;;;;;;5040409;28;20459;-95
2023/07/07 00:07:00;;;;;;;8.27;2.63;;;15.20;96.20;;;;;;5039057;28;20029;-96
2023/07/07 00:09:27;;;;;;;8.45;2.17;;;15.20;96.30;;;;;;5040335;28;20103;-95
2023/07/07 00:12:00;;;;;;;3.25;2.17;;;15.20;96.40;;;;;;5048112;28;20044;-95
2023/07/07 00:14:26;;;;;;;4.65;2.58;;;15.10;96.60;;;;;;5045812;28;20045;-96
2023/07/07 00:16:51;;;;;;;9.75;2.60;;;15.10;96.70;;;;;;5045356;28;20028;-95
2023/07/07 00:19:18;;;;;;;7.40;2.45;;;15.00;96.90;;;;;;5041479;28;20032;-96
2023/07/07 00:21:44;;;;;;;5.68;2.40;;;15.00;97.10;;;;;;5039241;28;20017;-96
2023/07/07 00:24:10;;;;;;;6.65;2.40;;;15.00;97.20;;;;;;5023679;28;20037;-95
2023/07/07 00:26:36;;;;;;;6.78;2.33;;;14.90;97.40;;;;;;5039563;28;20036;-94
2023/07/07 00:29:02;;;;;;;5.63;2.13;;;14.90;97.60;;;;;;5039319;28;20040;-95
2023/07/07 00:31:28;;;;;;;8.00;2.25;;;14.80;97.70;;;;;;5039812;28;20139;-96
2023/07/07 00:33:54;;;;;;;4.00;2.30;;;14.80;97.90;;;;;;5040316;28;20045;-96
2023/07/07 00:36:22;;;;;;;3.50;2.17;;;14.80;98.00;;;;;;5041713;28;20036;-96
2023/07/07 00:38:51;;;;;;;5.90;2.22;;;14.80;98.20;;;;;;5037952;28;20075;-95
2023/07/07 00:41:17;;;;;;;8.82;2.30;;;14.80;98.40;;;;;;5057395;28;20078;-95
2023/07/07 00:44:00;;;;;;;5.63;2.50;;;14.80;98.50;;;;;;5047961;28;20025;-95
2023/07/07 00:46:25;;;;;;;4.95;1.95;;;14.70;98.60;;;;;;5043855;28;20033;-96
2023/07/07 00:48:51;;;;;;;6.30;2.53;;;14.70;98.70;;;;;;5040058;28;20054;-95
2023/07/07 00:51:23;;;;;;;5.72;2.50;;;14.70;98.90;;;;;;5040529;28;20059;-95
2023/07/07 00:53:53;;;;;;;8.93;2.38;;;14.70;99.00;;;;;;5038606;28;20490;-96
2023/07/07 00:56:38;;;;;;;6.70;2.40;;;14.60;99.20;;;;;;5039023;28;20090;-95
2023/07/07 00:59:11;;;;;;;5.15;2.53;;;14.60;99.40;;;;;;5038787;28;20021;-96
2023/07/07 01:01:38;;;;;;;6.00;2.33;;;14.60;99.60;;;;;;5042614;28;20037;-95
2023/07/07 01:04:10;;;;;;;5.13;2.50;;;14.60;99.70;;;;;;5044046;28;20424;-93
2023/07/07 01:06:41;;;;;;;3.60;2.20;;;14.50;99.90;;;;;;5040039;28;20132;-95
2023/07/07 01:09:10;;;;;;;10.07;2.80;;;14.50;99.90;;;;;;5045608;28;20044;-93
2023/07/07 01:11:37;;;;;;;5.68;2.15;;;14.50;99.90;;;;;;5054086;28;20021;-96
2023/07/07 01:14:09;;;;;;;5.00;2.83;;;14.50;99.90;;;;;;5051788;28;20053;-95
2023/07/07 01:16:38;;;;;;;8.48;2.67;;;14.50;99.90;;;;;;5058971;28;20056;-94
2023/07/07 01:19:46;;;;;;;5.57;2.38;;;14.40;99.90;;;;;;5053192;28;20104;-95
2023/07/07 01:22:21;;;;;;;4.75;2.90;;;14.40;99.90;;;;;;5018499;28;20032;-94
2023/07/07 01:24:52;;;;;;;7.50;2.58;;;14.30;99.90;;;;;;5034501;28;20031;-96
2023/07/07 01:27:26;;;;;;;4.13;2.38;;;14.30;99.90;;;;;;5034764;28;20021;-95
2023/07/07 01:30:15;;;;;;;6.18;2.65;;;14.30;99.90;;;;;;5034325;28;20040;-95
2023/07/07 01:32:42;;;;;;;5.40;2.42;;;14.20;99.90;;;;;;4998003;28;20034;-96
2023/07/07 01:35:17;;;;;;;4.93;2.10;;;14.20;99.90;;;;;;5033735;28;20025;-95
2023/07/07 01:37:59;;;;;;;5.40;2.60;;;14.20;99.90;;;;;;5033555;28;20489;-94
2023/07/07 01:40:45;;;;;;;7.20;2.45;;;14.20;99.90;;;;;;5033768;28;20132;-96
2023/07/07 01:43:17;;;;;;;6.50;2.58;;;14.10;99.90;;;;;;5034297;28;20501;-95
2023/07/07 01:45:54;;;;;;;6.93;2.70;;;14.10;99.90;;;;;;5042681;28;20031;-95
2023/07/07 01:48:40;;;;;;;6.63;2.58;;;14.10;99.90;;;;;;5043546;28;20021;-94
2023/07/07 01:51:09;;;;;;;5.05;2.30;;;14.00;99.90;;;;;;5043762;28;20106;-95
2023/07/07 01:53:36;;;;;;;5.18;2.42;;;14.00;99.90;;;;;;5041677;28;20024;-93
2023/07/07 01:56:04;;;;;;;8.65;2.65;;;13.90;99.90;;;;;;5040027;28;20040;-93
2023/07/07 01:58:32;;;;;;;4.07;2.13;;;13.90;99.90;;;;;;5037471;28;20120;-95
2023/07/07 02:01:00;;;;;;;4.47;2.50;;;13.90;99.90;;;;;;5037244;28;20040;-94
2023/07/07 02:03:27;;;;;;;6.20;3.15;;;13.80;99.90;;;;;;5037480;28;20028;-93
2023/07/07 02:05:52;;;;;;;5.13;2.67;;;13.80;99.90;;;;;;5037718;28;20025;-93
2023/07/07 02:08:18;;;;;;;5.28;2.28;;;13.80;99.90;;;;;;5038652;28;20096;-94
2023/07/07 02:10:44;;;;;;;6.55;3.05;;;13.80;99.90;;;;;;5045626;28;20033;-93
2023/07/07 02:13:10;;;;;;;6.78;2.53;;;13.80;99.90;;;;;;5048539;28;20053;-93
2023/07/07 02:15:36;;;;;;;7.82;2.90;;;13.70;99.90;;;;;;5045943;28;20044;-93
2023/07/07 02:18:03;;;;;;;8.98;2.78;;;13.70;99.90;;;;;;5037146;28;20029;-95
2023/07/07 02:20:29;;;;;;;6.78;2.30;;;13.70;99.90;;;;;;5037067;28;20115;-94
2023/07/07 02:22:55;;;;;;;4.90;2.40;;;13.70;99.90;;;;;;5036615;28;20092;-94
2023/07/07 02:25:21;;;;;;;4.35;3.13;;;13.60;99.90;;;;;;5018352;28;20071;-94
2023/07/07 02:27:46;;;;;;;9.23;2.80;;;13.60;99.90;;;;;;5033128;28;20095;-94
2023/07/07 02:30:12;;;;;;;4.20;2.45;;;13.60;99.90;;;;;;5032826;28;20069;-95
2023/07/07 02:32:39;;;;;;;7.22;2.65;;;13.60;99.90;;;;;;5033308;28;20029;-95
2023/07/07 02:35:06;;;;;;;8.23;2.60;;;13.50;99.90;;;;;;5034193;28;20036;-94
2023/07/07 02:37:32;;;;;;;4.78;2.75;;;13.50;99.90;;;;;;5042870;28;20026;-93
2023/07/07 02:39:58;;;;;;;6.65;2.60;;;13.50;99.90;;;;;;5033887;28;20017;-95
2023/07/07 02:42:24;;;;;;;12.90;2.55;;;13.40;99.90;;;;;;5032729;28;20037;-95
2023/07/07 02:44:51;;;;;;;2.75;2.20;;;13.40;99.90;;;;;;5032983;28;20064;-94
2023/07/07 02:47:20;;;;;;;4.03;2.25;;;13.40;99.90;;;;;;5034163;28;20036;-95
2023/07/07 02:49:45;;;;;;;8.73;3.20;;;13.30;99.90;;;;;;5044492;28;20095;-91
2023/07/07 02:52:11;;;;;;;7.75;2.88;;;13.30;99.90;;;;;;5056776;28;20017;-93
2023/07/07 02:54:37;;;;;;;8.63;3.38;;;13.30;99.90;;;;;;5055145;28;20056;-95
2023/07/07 02:57:04;;;;;;;3.53;2.35;;;13.20;99.90;;;;;;5041110;28;20042;-95
2023/07/07 02:59:30;;;;;;;6.47;3.10;;;13.20;99.90;;;;;;5033154;28;20116;-94
2023/07/07 03:01:55;;;;;;;7.57;2.92;;;13.20;99.90;;;;;;5044033;28;20026;-95
2023/07/07 03:04:26;;;;;;;6.38;2.42;;;13.10;99.90;;;;;;5037549;28;20109;-95
2023/07/07 03:06:55;;;;;;;5.32;2.42;;;13.10;99.90;;;;;;5032697;28;20028;-94
2023/07/07 03:09:21;;;;;;;7.30;3.05;;;13.10;99.90;;;;;;5032000;28;20041;-95
2023/07/07 03:11:48;;;;;;;5.82;2.85;;;13.00;99.90;;;;;;5032535;28;20442;-94
2023/07/07 03:14:18;;;;;;;8.25;2.80;;;13.00;99.90;;;;;;5032330;28;20054;-95
2023/07/07 03:16:51;;;;;;;8.52;3.03;;;13.00;99.90;;;;;;5032406;28;20029;-94
2023/07/07 03:19:18;;;;;;;6.97;2.60;;;13.00;99.90;;;;;;5032233;28;20095;-94
2023/07/07 03:21:43;;;;;;;9.90;2.95;;;13.00;99.90;;;;;;5032394;28;20498;-93
2023/07/07 03:24:09;;;;;;;4.95;2.55;;;13.00;99.90;;;;;;5032190;28;20057;-93
2023/07/07 03:26:35;;;;;;;6.90;3.17;;;12.90;99.90;;;;;;5022996;28;20493;-94
2023/07/07 03:29:01;;;;;;;5.63;2.65;;;12.90;99.90;;;;;;5032143;28;20517;-95
2023/07/07 03:31:31;;;;;;;6.88;2.40;;;12.90;99.90;;;;;;5032720;28;20033;-93
2023/07/07 03:33:59;;;;;;;5.72;3.22;;;12.80;99.90;;;;;;5036134;28;20068;-95
2023/07/07 03:36:28;;;;;;;6.25;2.67;;;12.80;99.90;;;;;;5036501;28;20034;-95
2023/07/07 03:38:57;;;;;;;6.40;2.58;;;12.70;99.90;;;;;;5036760;28;20498;-94
2023/07/07 03:41:28;;;;;;;6.05;3.00;;;12.70;99.90;;;;;;5037030;28;20053;-93
2023/07/07 03:43:55;;;;;;;7.20;2.97;;;12.70;99.90;;;;;;5037422;28;20030;-95
2023/07/07 03:46:26;;;;;;;4.93;3.00;;;12.60;99.90;;;;;;5037683;28;20022;-95
2023/07/07 03:48:53;;;;;;;7.18;3.00;;;12.60;99.90;;;;;;5037648;28;20067;-94
2023/07/07 03:51:19;;;;;;;7.47;2.70;;;12.60;99.90;;;;;;5037553;28;20040;-94
2023/07/07 03:53:45;;;;;;;5.47;2.95;;;12.60;99.90;;;;;;5038431;28;20036;-94
2023/07/07 03:56:12;;;;;;;5.57;2.72;;;12.50;99.90;;;;;;5038056;28;20021;-94
2023/07/07 03:58:39;;;;;;;5.68;3.13;;;12.50;99.90;;;;;;5044553;28;20048;-94
2023/07/07 04:01:07;;;;;;;8.32;3.00;;;12.50;99.90;;;;;;5042284;28;20025;-94
2023/07/07 04:03:33;;;;;;;4.40;2.85;;;12.50;99.90;;;;;;5044223;28;20033;-94
2023/07/07 04:06:00;;;;;;;4.80;2.65;;;12.50;99.90;;;;;;5041827;28;20033;-94
2023/07/07 04:08:26;;;;;;;9.60;3.17;;;12.50;99.90;;;;;;5041376;28;20033;-94
2023/07/07 04:11:05;;;;;;;5.40;3.00;;;12.50;99.90;;;;;;5021533;28;20065;-95
2023/07/07 04:13:39;;;;;;;9.07;3.63;;;12.50;99.90;;;;;;5035331;28;20137;-95
2023/07/07 04:16:15;;;;;;;7.22;2.97;;;12.50;99.90;;;;;;5035255;28;20087;-95
2023/07/07 04:18:42;;;;;;;7.03;2.92;;;12.50;99.90;;;;;;5034849;28;20030;-96
2023/07/07 04:21:20;;;;;;;5.40;2.67;;;12.40;99.90;;;;;;5035402;28;20037;-95
2023/07/07 04:23:48;;;;;;;3.15;2.20;;;12.40;99.90;;;;;;5036923;28;20026;-94
2023/07/07 04:26:15;;;;;;;6.72;2.90;;;12.40;99.90;;;;;;5055829;28;20045;-93
2023/07/07 04:28:41;;;;;;;10.57;2.97;;;12.40;99.90;;;;;;5058731;28;20036;-93
2023/07/07 04:31:09;;;;;;;6.28;3.20;;;12.50;99.90;;;;;;5044727;28;20033;-94
2023/07/07 04:33:36;;;;;;;5.03;2.78;;;12.50;99.90;;;;;;5041507;28;20025;-94
2023/07/07 04:36:05;;;;;;;7.90;3.00;;;12.50;99.90;;;;;;5039891;28;20022;-95
2023/07/07 04:38:31;;;;;;;13.52;3.85;;;12.50;99.90;;;;;;5037165;28;20029;-96
2023/07/07 04:41:07;;;;;;;8.15;3.25;;;12.50;99.90;;;;;;5045081;28;20041;-93
2023/07/07 04:43:34;;;;;;;7.13;2.92;;;12.50;99.90;;;;;;5043973;28;20018;-94
2023/07/07 04:46:00;;;;;;;9.60;3.40;;;12.50;99.90;;;;;;5042408;28;20117;-95
2023/07/07 04:48:26;;;;;;;4.63;2.65;;;12.50;99.90;;;;;;5042288;28;20040;-94
2023/07/07 04:51:00;;;;;;;8.82;3.03;;;12.50;99.90;;;;;;5037354;28;20030;-94
2023/07/07 04:53:33;;;;;;;5.63;2.78;;;12.50;99.90;;;;;;5037471;28;20037;-95
2023/07/07 04:56:02;;;;;;;7.03;2.67;;;12.50;99.90;;;;;;5021396;28;20545;-94
2023/07/07 04:58:29;;;;;;;4.57;2.35;;;12.50;99.90;;;;;;5038957;28;20034;-96
2023/07/07 05:01:06;;;;;;;4.95;2.90;;;12.60;99.90;;;;;;5046616;28;20026;-93
2023/07/07 05:03:32;;;;;;;5.72;2.85;;;12.60;99.90;;;;;;5047457;28;20037;-94
2023/07/07 05:05:59;;;;;;;7.05;2.97;;;12.60;99.90;;;;;;5047986;28;20037;-93
2023/07/07 05:08:24;;;;;;;9.50;3.10;;;12.70;99.90;;;;;;5050235;28;20033;-92
2023/07/07 05:10:50;;;;;;;7.28;2.78;;;12.60;99.90;;;;;;5021586;28;20118;-95
2023/07/07 05:13:16;;;;;;;9.32;2.90;;;12.60;99.90;;;;;;5033908;28;20136;-93
2023/07/07 05:15:42;;;;;;;4.20;2.53;;;12.70;99.90;;;;;;5034246;28;20036;-96
2023/07/07 05:18:08;;;;;;;5.43;2.90;;;12.70;99.90;;;;;;5035948;28;20021;-94
2023/07/07 05:20:34;;;;;;;5.43;2.75;;;12.60;99.90;;;;;;5035812;28;20083;-95
2023/07/07 05:23:09;;;;;;;6.20;2.50;;;12.70;99.90;;;;;;5041900;28;20025;-94
2023/07/07 05:25:37;;;;;;;3.60;2.47;;;12.70;99.90;;;;;;5053513;28;20155;-94
2023/07/07 05:28:04;;;;;;;7.60;3.13;;;12.70;99.90;;;;;;5036152;28;20446;-95
2023/07/07 05:30:29;;;;;;;17.75;4.10;;;12.70;99.90;;;;;;5035165;28;20113;-93
2023/07/07 05:32:55;;;;;;;3.85;2.90;;;12.70;99.90;;;;;;5034261;28;20053;-93
2023/07/07 05:35:21;;;;;;;8.73;2.65;;;12.70;99.90;;;;;;5034143;28;20025;-94
2023/07/07 05:37:46;;;;;;;3.92;2.30;;;12.70;99.90;;;;;;5033955;28;20021;-94
2023/07/07 05:40:13;;;;;;;5.28;2.75;;;12.70;99.90;;;;;;5033988;28;20082;-96
2023/07/07 05:42:39;;;;;;;3.65;2.35;;;12.80;99.90;;;;;;5035320;28;20021;-96
2023/07/07 05:45:06;;;;;;;4.07;3.15;;;12.90;99.90;;;;;;5033141;28;20498;-94
2023/07/07 05:47:31;;;;;;;6.55;2.90;;;12.90;99.90;;;;;;5032653;28;20041;-95
2023/07/07 05:49:57;;;;;;;7.10;2.60;;;12.90;99.90;;;;;;5033550;28;20029;-95
2023/07/07 05:52:25;;;;;;;6.85;3.10;;;12.90;99.90;;;;;;5035262;28;20053;-94
2023/07/07 05:54:54;;;;;;;9.38;3.13;;;13.00;99.90;;;;;;5034175;28;20029;-95
2023/07/07 05:57:20;;;;;;;4.05;2.45;;;13.00;99.90;;;;;;5031905;28;20018;-94
2023/07/07 05:59:46;;;;;;;4.05;2.25;;;13.10;99.90;;;;;;5039750;28;20497;-95
2023/07/07 06:02:11;;;;;;;5.47;2.92;;;13.20;99.90;;;;;;5055427;28;20037;-96
2023/07/07 06:04:37;;;;;;;8.32;2.83;;;13.30;99.90;;;;;;5047947;28;20052;-93
2023/07/07 06:07:03;;;;;;;4.82;2.40;;;13.30;99.90;;;;;;5041391;28;20028;-93
2023/07/07 06:09:29;;;;;;;9.65;3.40;;;13.40;99.90;;;;;;5038854;28;20034;-94
2023/07/07 06:11:57;;;;;;;9.93;3.33;;;13.40;99.90;;;;;;5037713;28;20471;-96
2023/07/07 06:14:23;;;;;;;7.10;3.00;;;13.50;99.90;;;;;;5049642;28;20032;-96
2023/07/07 06:16:49;;;;;;;7.72;3.25;;;13.50;99.90;;;;;;5026941;28;20115;-95
2023/07/07 06:19:14;;;;;;;7.50;3.17;;;13.60;99.90;;;;;;5040427;28;20056;-96
2023/07/07 06:21:40;;;;;;;4.60;2.28;;;13.60;99.90;;;;;;5038989;28;20025;-95
2023/07/07 06:24:07;;;;;;;12.02;3.38;;;13.70;99.90;;;;;;5039198;28;20531;-95
2023/07/07 06:26:32;;;;;;;10.65;3.08;;;13.80;99.90;;;;;;5043617;28;20051;-96
2023/07/07 06:28:58;;;;;;;5.10;2.88;;;13.90;99.90;;;;;;5041168;28;20041;-95
2023/07/07 06:31:24;;;;;;;6.30;3.13;;;13.90;99.90;;;;;;5042570;28;20017;-96
2023/07/07 06:33:52;;;;;;;10.38;3.55;;;14.10;99.90;;;;;;5043404;28;20386;-96
2023/07/07 06:36:18;;;;;;;9.88;3.25;;;14.10;99.90;;;;;;5044713;28;20029;-95
2023/07/07 06:38:43;;;;;;;8.98;3.45;;;14.30;99.90;;;;;;5038168;28;20100;-95
2023/07/07 06:41:13;;;;;;;10.32;2.95;;;14.30;99.90;;;;;;5044112;28;20036;-95
2023/07/07 06:43:39;;;;;;;8.75;3.20;;;14.40;99.90;;;;;;5045755;28;20021;-96
2023/07/07 06:46:05;;;;;;;7.80;3.17;;;14.50;99.90;;;;;;5035819;28;20116;-94
2023/07/07 06:48:30;;;;;;;8.80;3.42;;;14.60;99.90;;;;;;5037532;28;20532;-95
2023/07/07 06:50:59;;;;;;;6.38;4.05;;;14.70;99.90;;;;;;5042529;28;20044;-94
2023/07/07 06:53:25;;;;;;;10.70;3.20;;;14.80;99.90;;;;;;5037787;28;20032;-95
2023/07/07 06:55:51;;;;;;;8.13;3.10;;;14.80;99.90;;;;;;5054753;28;20029;-95
2023/07/07 06:58:17;;;;;;;9.48;3.10;;;14.90;99.90;;;;;;5048438;28;20035;-95
2023/07/07 07:00:44;;;;;;;9.88;3.80;;;15.00;99.90;;;;;;5044511;28;20025;-96
2023/07/07 07:03:10;;;;;;;8.55;4.47;;;15.10;99.90;;;;;;5044722;28;20032;-95
2023/07/07 07:05:39;;;;;;;13.38;3.20;;;15.20;99.90;;;;;;5045491;28;20033;-95
2023/07/07 07:08:06;;;;;;;7.90;3.25;;;15.20;99.90;;;;;;5049259;28;20036;-96
2023/07/07 07:10:32;;;;;;;9.25;3.17;;;15.40;99.90;;;;;;5032631;28;20029;-94
2023/07/07 07:12:57;;;;;;;6.88;3.08;;;15.40;99.90;;;;;;5042567;28;20047;-96
2023/07/07 07:15:23;;;;;;;9.43;3.05;;;15.50;99.90;;;;;;5044871;28;20025;-96
2023/07/07 07:17:49;;;;;;;9.90;3.72;;;15.60;99.90;;;;;;5036690;28;20040;-95
2023/07/07 07:20:17;;;;;;;7.28;3.10;;;15.70;99.90;;;;;;5047826;28;20025;-96
2023/07/07 07:22:43;;;;;;;6.13;2.80;;;15.70;99.90;;;;;;5044586;28;20678;-95
2023/07/07 07:25:09;;;;;;;8.60;3.20;;;15.80;99.90;;;;;;5039998;28;20032;-96
2023/07/07 07:27:37;;;;;;;7.57;3.30;;;15.80;99.90;;;;;;5044010;28;20139;-96
2023/07/07 07:30:04;;;;;;;9.07;3.25;;;15.90;99.90;;;;;;5044398;28;20056;-96
2023/07/07 07:32:30;;;;;;;9.77;4.38;;;16.00;99.90;;;;;;5043840;28;20021;-96
2023/07/07 07:34:55;;;;;;;12.00;3.25;;;16.10;99.90;;;;;;5042562;28;20036;-94
2023/07/07 07:37:21;;;;;;;8.60;2.78;;;16.20;99.90;;;;;;5056566;28;20013;-92
2023/07/07 07:39:47;;;;;;;7.65;3.10;;;16.30;99.90;;;;;;5063359;28;20037;-96
2023/07/07 07:42:13;;;;;;;9.88;3.63;;;16.30;99.90;;;;;;5060885;28;20071;-96
2023/07/07 07:44:38;;;;;;;8.13;2.97;;;16.40;99.90;;;;;;5052786;28;20047;-94
2023/07/07 07:47:04;;;;;;;8.55;3.05;;;16.50;99.90;;;;;;5056951;28;20029;-94
2023/07/07 07:49:30;;;;;;;9.40;3.42;;;16.60;99.90;;;;;;5058662;28;20108;-96
2023/07/07 07:51:56;;;;;;;7.10;3.00;;;16.70;99.90;;;;;;5052670;28;20025;-94
2023/07/07 07:54:25;;;;;;;10.13;3.75;;;16.80;99.90;;;;;;5048688;28;20466;-94
2023/07/07 07:56:52;;;;;;;5.03;2.92;;;16.80;99.90;;;;;;5048034;28;20078;-94
2023/07/07 07:59:18;;;;;;;11.20;3.20;;;16.90;99.90;;;;;;5058481;28;20106;-94
2023/07/07 08:01:52;;;;;;;8.20;3.17;;;17.00;99.90;;;;;;5041614;28;20029;-92
2023/07/07 08:04:23;;;;;;;7.13;2.83;;;17.10;99.90;;;;;;5057258;28;20110;-93
2023/07/07 08:06:54;;;;;;;6.53;2.78;;;17.20;99.90;;;;;;5041721;28;20029;-94
2023/07/07 08:09:20;;;;;;;4.63;2.78;;;17.30;99.90;;;;;;5038379;28;20033;-94
2023/07/07 08:12:14;;;;;;;6.75;2.97;;;17.40;99.90;;;;;;5037092;28;20131;-93
2023/07/07 08:14:52;;;;;;;9.80;3.05;;;17.50;99.90;;;;;;5014823;28;20111;-93
2023/07/07 08:17:20;;;;;;;6.35;2.65;;;17.70;99.90;;;;;;5031099;28;20522;-94
2023/07/07 08:19:48;;;;;;;5.50;2.80;;;17.80;99.90;;;;;;5035885;28;20035;-93
2023/07/07 08:22:24;;;;;;;8.38;2.88;;;17.80;99.90;;;;;;5033466;28;20025;-94
2023/07/07 08:24:58;;;;;;;5.20;2.58;;;17.90;99.90;;;;;;5038533;28;20028;-92
2023/07/07 08:27:26;;;;;;;13.57;2.88;;;18.00;99.90;;;;;;5040020;28;20087;-92
2023/07/07 08:29:53;;;;;;;8.32;3.22;;;18.10;99.90;;;;;;5037002;28;20037;-93
2023/07/07 08:32:22;;;;;;;6.00;2.60;;;18.20;99.90;;;;;;5038089;28;20502;-92
2023/07/07 08:34:50;;;;;;;5.28;2.38;;;18.30;99.90;;;;;;5037762;28;20025;-92
2023/07/07 08:37:20;;;;;;;4.78;2.95;;;18.40;99.90;;;;;;5037487;28;20083;-96
2023/07/07 08:39:46;;;;;;;7.05;2.70;;;18.50;99.90;;;;;;5038592;28;20037;-94
2023/07/07 08:42:33;;;;;;;6.63;2.40;;;18.60;99.90;;;;;;5038743;28;20029;-93
2023/07/07 08:45:02;;;;;;;6.88;2.22;;;18.70;99.90;;;;;;5037488;28;20493;-91
2023/07/07 08:47:45;;;;;;;7.40;2.53;;;18.80;99.90;;;;;;5055935;28;20025;-92
2023/07/07 08:50:46;;;;;;;4.57;2.35;;;19.00;99.90;;;;;;5049545;28;20123;-94
2023/07/07 08:53:26;;;;;;;;;;;19.00;99.90;;;;;;5027419;28;20029;-94
2023/07/07 08:56:18;;;;;;;8.20;2.30;;;19.20;99.90;;;;;;5018052;28;19976;-95
2023/07/07 08:59:05;;;;;;;7.88;2.50;;;19.20;99.90;;;;;;5016560;28;20276;-96
2023/07/07 09:01:50;;;;;;;9.43;2.47;;;19.30;99.90;;;;;;5032398;28;20053;-95
2023/07/07 09:04:38;;;;;;;5.65;2.92;;;19.50;99.90;;;;;;5024315;28;20092;-95
2023/07/07 09:07:18;;;;;;;5.60;2.88;;;19.50;99.90;;;;;;5036366;28;20017;-96
2023/07/07 09:10:12;;;;;;;6.85;2.15;;;19.50;99.90;;;;;;5025307;28;20037;-94
2023/07/07 09:13:03;;;;;;;3.67;2.40;;;19.70;99.90;;;;;;5050330;28;20024;-94
2023/07/07 09:15:38;;;;;;;7.20;2.70;;;19.90;99.90;;;;;;5073035;28;20036;-95
2023/07/07 09:18:34;;;;;;;5.47;2.70;;;20.00;99.90;;;;;;5039579;28;20024;-93
2023/07/07 09:21:03;;;;;;;4.32;2.33;;;20.10;99.70;;;;;;5033651;28;20482;-94
2023/07/07 09:23:40;;;;;;;5.80;1.98;;;20.10;99.00;;;;;;5038286;28;20053;-93
2023/07/07 09:26:38;;;;;;;8.82;2.85;;;20.10;98.60;;;;;;5041228;28;20025;-93
2023/07/07 09:29:34;;;;;;;4.60;2.60;;;20.20;98.30;;;;;;5036654;28;20045;-94
2023/07/07 09:32:02;;;;;;;6.13;2.53;;;20.30;97.40;;;;;;5051719;28;20029;-95
2023/07/07 09:34:33;;;;;;;7.07;2.75;;;20.50;97.40;;;;;;5041722;28;20021;-94
2023/07/07 09:37:06;;;;;;;7.97;2.90;;;20.50;97.60;;;;;;5075555;28;20027;-92
2023/07/07 09:40:35;;;;;;;5.97;2.60;;;20.60;96.70;;;;;;5044982;28;20033;-95
2023/07/07 09:46:36;;;;;;;4.15;2.30;;;20.90;96.00;;;;;;5127379;22;20450;-70
2023/07/07 09:49:18;;;;;;;5.03;2.50;;;21.10;95.30;;;;;;5050715;28;20040;-71
2023/07/07 09:52:09;;;;;;;8.55;3.45;;;21.20;94.70;;;;;;5050863;28;20098;-70
2023/07/07 09:54:35;;;;;;;6.43;2.28;;;21.40;94.50;;;;;;5051370;28;20120;-71
2023/07/07 09:57:14;;;;;;;5.55;2.00;;;21.50;93.50;;;;;;5047286;28;20024;-71
2023/07/07 09:59:44;;;;;;;3.75;2.13;;;21.60;92.80;;;;;;5043334;28;20022;-72
2023/07/07 10:02:21;;;;;;;5.68;2.08;;;21.70;92.50;;;;;;5050127;28;20020;-71
2023/07/07 10:04:54;;;;;;;7.75;2.13;;;21.70;92.10;;;;;;5052635;28;20028;-71
2023/07/07 10:07:21;;;;;;;6.55;2.35;;;21.90;91.80;;;;;;5046239;28;20104;-71
2023/07/07 10:09:46;;;;;;;7.30;2.30;;;22.00;91.50;;;;;;5052427;28;20036;-71
2023/07/07 10:12:15;;;;;;;5.30;2.10;;;22.10;90.80;;;;;;5052479;28;20161;-72
2023/07/07 10:14:43;;;;;;;7.75;1.80;;;22.10;90.40;;;;;;5065943;28;20100;-70
2023/07/07 10:17:17;;;;;;;7.95;2.22;;;22.20;89.90;;;;;;5066879;28;20363;-72
2023/07/07 10:19:53;;;;;;;5.07;2.47;;;22.20;87.40;;;;;;5061084;28;20024;-70
2023/07/07 10:22:20;;;;;;;2.83;1.95;;;22.30;87.50;;;;;;5056217;28;20025;-71
2023/07/07 10:24:46;;;;;;;4.43;2.08;;;22.50;87.20;;;;;;5052414;28;20410;-71
2023/07/07 10:27:15;;;;;;;3.33;1.90;;;22.70;86.20;;;;;;5051214;28;20021;-70
2023/07/07 10:29:42;;;;;;;5.57;2.15;;;22.90;85.80;;;;;;5033983;28;20033;-69
2023/07/07 10:32:18;;;;;;;6.22;2.08;;;23.00;84.10;;;;;;5032144;28;20048;-70
2023/07/07 10:34:47;;;;;;;5.72;2.03;;;23.10;83.80;;;;;;5032401;28;20476;-70
2023/07/07 10:37:28;;;;;;;4.95;1.92;;;23.20;83.30;;;;;;5033335;28;20033;-71
2023/07/07 10:39:56;;;;;;;5.03;2.17;;;23.40;82.30;;;;;;5034329;28;20033;-70
2023/07/07 10:42:25;;;;;;;6.07;2.00;;;23.40;81.10;;;;;;5055205;28;20017;-69
2023/07/07 10:44:57;;;;;;;7.57;1.98;;;23.60;81.60;;;;;;5055921;28;20047;-69
2023/07/07 10:47:29;;;;;;;5.97;2.22;;;23.70;81.40;;;;;;5045253;28;20036;-70
2023/07/07 10:49:56;;;;;;;7.03;2.25;;;23.90;81.40;;;;;;5036329;28;20480;-70
2023/07/07 10:52:32;;;;;;;6.20;2.05;;;23.90;79.10;;;;;;5036384;28;20048;-69
2023/07/07 10:55:10;;;;;;;5.28;2.20;;;23.90;77.40;;;;;;5036037;28;20082;-69
2023/07/07 10:57:54;;;;;;;5.35;1.92;;;23.90;76.60;;;;;;5026998;28;20027;-69
2023/07/07 11:00:32;;;;;;;9.23;1.80;;;24.00;76.60;;;;;;5037949;28;20079;-70
2023/07/07 11:03:19;;;;;;;7.90;2.05;;;24.10;76.80;;;;;;5055960;28;20025;-69
2023/07/07 11:06:02;;;;;;;8.88;2.10;;;24.20;76.60;;;;;;5055815;28;20306;-70
2023/07/07 11:08:37;;;;;;;5.43;2.58;;;24.30;77.00;;;;;;5053908;28;20539;-70
2023/07/07 11:11:35;;;;;;;3.83;1.88;;;24.40;76.40;;;;;;5034979;28;20029;-71
2023/07/07 11:14:37;;;;;;;5.28;1.73;;;24.50;76.10;;;;;;5035410;28;20040;-71
2023/07/07 11:17:18;;;;;;;5.97;2.13;;;24.80;75.90;;;;;;5035765;28;20029;-71
2023/07/07 11:19:52;;;;;;;4.88;2.13;;;25.00;75.00;;;;;;5035722;28;20044;-72
2023/07/07 11:22:37;;;;;;;5.50;1.73;;;25.00;74.10;;;;;;5051677;28;20025;-71
2023/07/07 11:25:38;;;;;;;7.95;1.85;;;25.00;73.60;;;;;;5054322;28;20029;-73
2023/07/07 11:28:23;;;;;;;4.40;1.75;;;24.90;73.10;;;;;;5052869;28;20033;-71
2023/07/07 11:31:02;;;;;;;6.03;1.77;;;24.90;72.70;;;;;;5053559;28;20052;-72
2023/07/07 11:33:48;;;;;;;4.00;1.63;;;25.00;72.20;;;;;;5032636;28;20024;-70
2023/07/07 11:36:32;;;;;;;6.57;1.80;;;24.90;70.90;;;;;;5000775;28;20050;-70
2023/07/07 11:39:28;;;;;;;3.13;1.83;;;24.70;71.00;;;;;;5054823;28;20095;-69
2023/07/07 11:42:32;;;;;;;4.32;1.50;;;24.70;71.50;;;;;;5053707;28;20420;-69
2023/07/07 11:45:00;;;;;;;5.32;1.55;;;25.00;71.60;;;;;;5053972;28;20070;-69
2023/07/07 11:47:55;;;;;;;4.18;1.58;;;25.10;70.90;;;;;;5054577;28;20028;-69
2023/07/07 11:51:02;;;;;;;6.72;1.77;;;25.30;70.40;;;;;;5032325;28;20032;-69
2023/07/07 11:53:49;;;;;;;4.15;1.67;;;25.50;69.70;;;;;;5051944;28;20062;-69
2023/07/07 11:56:44;;;;;;;3.22;1.80;;;25.70;68.70;;;;;;5052481;28;20028;-71
2023/07/07 11:59:24;;;;;;;5.03;1.73;;;25.50;68.00;;;;;;5053874;28;20499;-70
2023/07/07 12:01:52;;;;;;;;;;;25.50;68.30;;;;;;5040363;28;20483;-70
2023/07/07 12:04:22;;;;;;;2.42;1.58;;;25.60;68.60;;;;;;5054285;28;19915;-69
2023/07/07 12:06:52;;;;;;;4.95;1.90;;;25.70;67.50;;;;;;5054875;28;20071;-70
2023/07/07 12:09:36;;;;;;;5.18;2.22;;;25.70;65.80;;;;;;5054257;28;20040;-70
2023/07/07 12:12:23;;;;;;;3.72;1.75;;;25.70;65.70;;;;;;5054751;28;20028;-70
2023/07/07 12:15:07;;;;;;;2.72;1.60;;;26.00;65.70;;;;;;5033356;28;20025;-69
2023/07/07 12:17:40;;;;;;;5.65;2.10;;;26.20;65.60;;;;;;5044763;28;20064;-70
2023/07/07 12:20:24;;;;;;;3.55;1.70;;;26.40;64.90;;;;;;5054612;28;20025;-70
2023/07/07 12:22:50;;;;;;;6.05;1.70;;;26.60;64.20;;;;;;5054252;28;20096;-70
2023/07/07 12:25:28;;;;;;;2.95;1.90;;;26.80;62.80;;;;;;5036536;28;20116;-69
2023/07/07 12:27:54;;;;;;;3.83;1.90;;;26.80;61.40;;;;;;5036565;28;20048;-70
2023/07/07 12:30:22;;;;;;;5.60;1.67;;;26.70;61.60;;;;;;5038486;28;20029;-70
2023/07/07 12:32:48;;;;;;;3.42;1.80;;;26.80;61.80;;;;;;5069047;28;20029;-70
2023/07/07 12:35:27;;;;;;;5.22;1.85;;;26.90;60.80;;;;;;5054346;28;20075;-70
2023/07/07 12:38:02;;;;;;;2.53;1.60;;;26.90;59.40;;;;;;5035313;28;20025;-70
2023/07/07 12:40:27;;;;;;;4.05;1.70;;;27.00;59.40;;;;;;5033953;28;20032;-70
2023/07/07 12:43:17;;;;;;;5.72;1.80;;;27.10;59.60;;;;;;5034061;28;20021;-70
2023/07/07 12:45:46;;;;;;;3.17;1.70;;;27.10;58.80;;;;;;5041702;28;20104;-70
2023/07/07 12:48:21;;;;;;;3.63;2.05;;;27.00;58.40;;;;;;5043336;28;20055;-69
2023/07/07 12:50:49;;;;;;;6.60;2.10;;;27.00;58.80;;;;;;5032983;28;20032;-70
2023/07/07 12:53:27;;;;;;;4.93;1.88;;;27.20;58.80;;;;;;5054056;28;20021;-71
2023/07/07 12:56:17;;;;;;;4.72;2.08;;;27.20;58.10;;;;;;5058032;28;20020;-70
2023/07/07 12:58:47;;;;;;;6.53;2.47;;;27.20;57.00;;;;;;5044605;28;20468;-70
2023/07/07 13:01:19;;;;;;;5.38;2.47;;;27.20;56.50;;;;;;5054037;28;20016;-70
2023/07/07 13:04:02;;;;;;;3.60;2.38;;;27.20;56.80;;;;;;5053772;28;20059;-69
2023/07/07 13:06:31;;;;;;;3.97;2.17;;;27.40;56.90;;;;;;5053552;28;20039;-69
2023/07/07 13:09:21;;;;;;;5.60;2.22;;;27.50;56.90;;;;;;5064846;28;20165;-69
2023/07/07 13:11:55;;;;;;;5.40;2.15;;;27.60;56.70;;;;;;5073497;28;20630;-69
2023/07/07 13:14:28;;;;;;;5.60;2.22;;;27.60;56.10;;;;;;5055497;28;20056;-69
2023/07/07 13:16:56;;;;;;;2.28;1.70;;;27.70;56.10;;;;;;5038549;28;20481;-70